sensor_id;sensor_type;location;lat;lon;timestamp;pressure;altitude;pressure_sealevel;temperature;humidity
27304;BME280;14791;52.392;13.092;2023-05-01T00:01:30;101707.84;;;13.89;34.22
27304;BME280;14791;52.392;13.092;2023-05-01T00:04:01;101708.48;;;13.85;34.15
27304;BME280;14791;52.392;13.092;2023-05-01T00:06:30;101712.59;;;13.83;34.26
27304;BME280;14791;52.392;13.092;2023-05-01T00:09:00;101708.39;;;13.79;34.26
27304;BME280;14791;52.392;13.092;2023-05-01T00:11:29;101705.48;;;13.75;34.45
27304;BME280;14791;52.392;13.092;2023-05-01T00:13:58;101699.34;;;13.73;34.52
27304;BME280;14791;52.392;13.092;2023-05-01T00:16:27;101701.73;;;13.71;34.52
27304;BME280;14791;52.392;13.092;2023-05-01T00:18:56;101702.78;;;13.68;34.48
27304;BME280;14791;52.392;13.092;2023-05-01T00:21:25;101699.31;;;13.66;34.63
27304;BME280;14791;52.392;13.092;2023-05-01T00:23:55;101703.05;;;13.64;34.68
27304;BME280;14791;52.392;13.092;2023-05-01T00:26:24;101702.39;;;13.60;34.70
27304;BME280;14791;52.392;13.092;2023-05-01T00:28:55;101697.17;;;13.57;34.63
27304;BME280;14791;52.392;13.092;2023-05-01T00:31:25;101700.83;;;13.56;34.76
27304;BME280;14791;52.392;13.092;2023-05-01T00:33:54;101699.08;;;13.55;34.83
27304;BME280;14791;52.392;13.092;2023-05-01T00:36:23;101698.34;;;13.53;34.82
27304;BME280;14791;52.392;13.092;2023-05-01T00:38:52;101696.99;;;13.53;34.84
27304;BME280;14791;52.392;13.092;2023-05-01T00:41:20;101696.66;;;13.50;34.83
27304;BME280;14791;52.392;13.092;2023-05-01T00:43:49;101688.72;;;13.49;34.87
27304;BME280;14791;52.392;13.092;2023-05-01T00:46:18;101684.89;;;13.46;34.90
27304;BME280;14791;52.392;13.092;2023-05-01T00:48:48;101687.16;;;13.45;34.92
27304;BME280;14791;52.392;13.092;2023-05-01T00:51:18;101687.35;;;13.42;34.81
27304;BME280;14791;52.392;13.092;2023-05-01T00:53:49;101689.82;;;13.37;34.89
27304;BME280;14791;52.392;13.092;2023-05-01T00:56:18;101684.72;;;13.33;34.95
27304;BME280;14791;52.392;13.092;2023-05-01T00:58:49;101682.78;;;13.28;35.03
27304;BME280;14791;52.392;13.092;2023-05-01T01:01:21;101671.91;;;13.22;35.07
27304;BME280;14791;52.392;13.092;2023-05-01T01:03:50;101678.02;;;13.17;35.11
27304;BME280;14791;52.392;13.092;2023-05-01T01:12:05;101674.11;;;13.07;35.44
27304;BME280;14791;52.392;13.092;2023-05-01T01:15:01;101669.12;;;13.01;35.41
27304;BME280;14791;52.392;13.092;2023-05-01T01:20:23;101666.36;;;12.86;35.61
27304;BME280;14791;52.392;13.092;2023-05-01T01:22:53;101666.51;;;12.83;35.58
27304;BME280;14791;52.392;13.092;2023-05-01T01:25:28;101668.81;;;12.82;35.64
27304;BME280;14791;52.392;13.092;2023-05-01T01:42:09;101656.56;;;12.53;35.86
27304;BME280;14791;52.392;13.092;2023-05-01T01:44:41;101648.09;;;12.45;35.91
27304;BME280;14791;52.392;13.092;2023-05-01T01:47:11;101647.45;;;12.40;36.02
27304;BME280;14791;52.392;13.092;2023-05-01T01:49:45;101650.91;;;12.42;36.23
27304;BME280;14791;52.392;13.092;2023-05-01T01:52:15;101653.14;;;12.43;36.08
27304;BME280;14791;52.392;13.092;2023-05-01T01:54:54;101649.12;;;12.43;36.08
27304;BME280;14791;52.392;13.092;2023-05-01T01:57:20;101644.77;;;12.40;36.13
27304;BME280;14791;52.392;13.092;2023-05-01T01:59:50;101644.02;;;12.38;36.31
27304;BME280;14791;52.392;13.092;2023-05-01T02:02:21;101641.48;;;12.35;36.31
27304;BME280;14791;52.392;13.092;2023-05-01T02:04:51;101637.95;;;12.34;36.30
27304;BME280;14791;52.392;13.092;2023-05-01T02:07:23;101632.28;;;12.32;36.33
27304;BME280;14791;52.392;13.092;2023-05-01T02:09:54;101633.63;;;12.32;36.42
27304;BME280;14791;52.392;13.092;2023-05-01T02:12:25;101630.56;;;12.31;36.50
27304;BME280;14791;52.392;13.092;2023-05-01T02:14:55;101623.41;;;12.23;36.45
27304;BME280;14791;52.392;13.092;2023-05-01T02:17:26;101621.89;;;12.26;36.44
27304;BME280;14791;52.392;13.092;2023-05-01T02:19:56;101614.58;;;12.21;36.53
27304;BME280;14791;52.392;13.092;2023-05-01T02:22:27;101619.94;;;12.21;36.48
27304;BME280;14791;52.392;13.092;2023-05-01T02:24:57;101616.51;;;12.19;36.68
27304;BME280;14791;52.392;13.092;2023-05-01T02:27:39;101614.38;;;12.17;36.60
27304;BME280;14791;52.392;13.092;2023-05-01T02:30:04;101608.24;;;12.15;36.69
27304;BME280;14791;52.392;13.092;2023-05-01T02:32:33;101593.05;;;12.06;36.78
27304;BME280;14791;52.392;13.092;2023-05-01T02:35:03;101594.23;;;12.09;36.83
27304;BME280;14791;52.392;13.092;2023-05-01T02:37:32;101596.03;;;12.09;36.89
27304;BME280;14791;52.392;13.092;2023-05-01T02:40:04;101592.97;;;12.08;37.04
27304;BME280;14791;52.392;13.092;2023-05-01T02:42:34;101591.33;;;12.05;37.03
27304;BME280;14791;52.392;13.092;2023-05-01T02:45:06;101579.45;;;12.02;37.08
27304;BME280;14791;52.392;13.092;2023-05-01T02:47:38;101579.45;;;12.02;37.08
27304;BME280;14791;52.392;13.092;2023-05-01T02:50:08;101578.26;;;11.99;37.07
27304;BME280;14791;52.392;13.092;2023-05-01T02:52:38;101578.44;;;11.96;37.11
27304;BME280;14791;52.392;13.092;2023-05-01T02:55:21;101573.33;;;11.91;37.16
27304;BME280;14791;52.392;13.092;2023-05-01T02:57:50;101570.80;;;11.80;37.31
27304;BME280;14791;52.392;13.092;2023-05-01T03:00:20;101570.80;;;11.80;37.31
27304;BME280;14791;52.392;13.092;2023-05-01T03:02:50;101572.23;;;11.78;37.33
27304;BME280;14791;52.392;13.092;2023-05-01T03:05:19;101571.05;;;11.75;37.29
27304;BME280;14791;52.392;13.092;2023-05-01T03:07:48;101567.68;;;11.71;37.32
27304;BME280;14791;52.392;13.092;2023-05-01T03:10:18;101566.96;;;11.68;37.40
27304;BME280;14791;52.392;13.092;2023-05-01T03:12:47;101557.08;;;11.61;37.51
27304;BME280;14791;52.392;13.092;2023-05-01T03:15:16;101562.81;;;11.62;37.66
27304;BME280;14791;52.392;13.092;2023-05-01T03:17:45;101564.22;;;11.61;37.69
27304;BME280;14791;52.392;13.092;2023-05-01T03:20:14;101562.98;;;11.59;37.66
27304;BME280;14791;52.392;13.092;2023-05-01T03:22:43;101555.41;;;11.59;37.66
27304;BME280;14791;52.392;13.092;2023-05-01T03:25:12;101561.23;;;11.58;37.71
27304;BME280;14791;52.392;13.092;2023-05-01T03:27:42;101552.28;;;11.59;37.75
27304;BME280;14791;52.392;13.092;2023-05-01T03:30:11;101551.87;;;11.58;37.79
27304;BME280;14791;52.392;13.092;2023-05-01T03:32:41;101552.34;;;11.58;37.74
27304;BME280;14791;52.392;13.092;2023-05-01T03:35:11;101550.16;;;11.57;37.72
27304;BME280;14791;52.392;13.092;2023-05-01T03:37:40;101543.22;;;11.53;37.87
27304;BME280;14791;52.392;13.092;2023-05-01T03:40:10;101550.70;;;11.55;37.62
27304;BME280;14791;52.392;13.092;2023-05-01T03:42:58;101551.56;;;11.56;37.62
27304;BME280;14791;52.392;13.092;2023-05-01T03:45:27;101545.66;;;11.49;37.78
27304;BME280;14791;52.392;13.092;2023-05-01T03:47:56;101546.24;;;11.47;37.75
27304;BME280;14791;52.392;13.092;2023-05-01T03:50:25;101549.84;;;11.46;37.80
27304;BME280;14791;52.392;13.092;2023-05-01T03:52:54;101549.47;;;11.45;37.94
27304;BME280;14791;52.392;13.092;2023-05-01T03:55:24;101548.13;;;11.45;38.04
27304;BME280;14791;52.392;13.092;2023-05-01T03:57:53;101541.88;;;11.44;38.10
27304;BME280;14791;52.392;13.092;2023-05-01T04:00:23;101546.38;;;11.44;38.12
27304;BME280;14791;52.392;13.092;2023-05-01T04:02:52;101547.72;;;11.44;38.20
27304;BME280;14791;52.392;13.092;2023-05-01T04:05:23;101538.45;;;11.42;38.36
27304;BME280;14791;52.392;13.092;2023-05-01T04:07:53;101538.45;;;11.42;38.36
27304;BME280;14791;52.392;13.092;2023-05-01T04:10:22;101532.21;;;11.42;38.27
27304;BME280;14791;52.392;13.092;2023-05-01T04:12:53;101523.33;;;11.41;38.38
27304;BME280;14791;52.392;13.092;2023-05-01T04:15:22;101530.19;;;11.47;38.31
27304;BME280;14791;52.392;13.092;2023-05-01T04:17:51;101525.59;;;11.49;38.73
27304;BME280;14791;52.392;13.092;2023-05-01T04:20:22;101525.59;;;11.49;38.73
27304;BME280;14791;52.392;13.092;2023-05-01T04:22:51;101519.38;;;11.48;38.47
27304;BME280;14791;52.392;13.092;2023-05-01T04:25:20;101525.45;;;11.52;38.35
27304;BME280;14791;52.392;13.092;2023-05-01T04:27:52;101525.45;;;11.52;38.35
27304;BME280;14791;52.392;13.092;2023-05-01T04:30:21;101523.57;;;11.54;38.34
27304;BME280;14791;52.392;13.092;2023-05-01T04:32:51;101516.70;;;11.57;38.40
27304;BME280;14791;52.392;13.092;2023-05-01T04:35:19;101523.70;;;11.60;38.32
27304;BME280;14791;52.392;13.092;2023-05-01T04:37:48;101510.02;;;11.57;38.38
27304;BME280;14791;52.392;13.092;2023-05-01T04:40:17;101521.95;;;11.67;38.35
27304;BME280;14791;52.392;13.092;2023-05-01T04:42:46;101521.70;;;11.72;38.46
27304;BME280;14791;52.392;13.092;2023-05-01T04:45:15;101519.56;;;11.79;38.36
27304;BME280;14791;52.392;13.092;2023-05-01T04:47:44;101520.17;;;11.84;38.33
27304;BME280;14791;52.392;13.092;2023-05-01T04:50:13;101522.56;;;11.90;38.22
27304;BME280;14791;52.392;13.092;2023-05-01T04:52:42;101520.49;;;11.95;38.20
27304;BME280;14791;52.392;13.092;2023-05-01T04:55:11;101517.08;;;12.00;38.15
27304;BME280;14791;52.392;13.092;2023-05-01T04:57:41;101516.83;;;12.05;38.10
27304;BME280;14791;52.392;13.092;2023-05-01T05:00:11;101512.16;;;12.08;38.08
27304;BME280;14791;52.392;13.092;2023-05-01T05:02:42;101511.42;;;12.13;38.06
27304;BME280;14791;52.392;13.092;2023-05-01T05:05:11;101508.89;;;12.19;37.97
27304;BME280;14791;52.392;13.092;2023-05-01T05:07:40;101514.38;;;12.25;37.92
27304;BME280;14791;52.392;13.092;2023-05-01T05:10:27;101506.00;;;12.31;37.88
27304;BME280;14791;52.392;13.092;2023-05-01T05:12:57;101510.31;;;12.33;37.83
27304;BME280;14791;52.392;13.092;2023-05-01T05:15:27;101504.11;;;12.40;37.78
27304;BME280;14791;52.392;13.092;2023-05-01T05:17:56;101503.29;;;12.47;37.74
27304;BME280;14791;52.392;13.092;2023-05-01T05:20:24;101495.58;;;12.56;37.69
27304;BME280;14791;52.392;13.092;2023-05-01T05:22:54;101490.25;;;12.64;37.60
27304;BME280;14791;52.392;13.092;2023-05-01T05:25:24;101495.19;;;12.71;37.52
27304;BME280;14791;52.392;13.092;2023-05-01T05:27:53;101493.39;;;12.79;37.41
27304;BME280;14791;52.392;13.092;2023-05-01T05:30:22;101484.97;;;12.85;37.38
27304;BME280;14791;52.392;13.092;2023-05-01T05:32:53;101479.62;;;12.92;37.32
27304;BME280;14791;52.392;13.092;2023-05-01T05:35:22;101480.13;;;12.99;37.29
27304;BME280;14791;52.392;13.092;2023-05-01T05:37:51;101474.30;;;13.07;37.27
27304;BME280;14791;52.392;13.092;2023-05-01T05:40:21;101471.06;;;13.16;37.15
27304;BME280;14791;52.392;13.092;2023-05-01T05:42:51;101474.16;;;13.24;37.03
27304;BME280;14791;52.392;13.092;2023-05-01T05:45:21;101466.16;;;13.31;36.95
27304;BME280;14791;52.392;13.092;2023-05-01T05:47:50;101466.16;;;13.38;36.86
27304;BME280;14791;52.392;13.092;2023-05-01T05:50:19;101463.84;;;13.47;36.85
27304;BME280;14791;52.392;13.092;2023-05-01T05:52:48;101459.82;;;13.54;36.76
27304;BME280;14791;52.392;13.092;2023-05-01T05:55:17;101457.91;;;13.63;36.62
27304;BME280;14791;52.392;13.092;2023-05-01T05:57:48;101469.78;;;13.73;36.51
27304;BME280;14791;52.392;13.092;2023-05-01T06:00:17;101467.48;;;13.81;36.45
27304;BME280;14791;52.392;13.092;2023-05-01T06:02:48;101467.48;;;13.89;36.36
27304;BME280;14791;52.392;13.092;2023-05-01T06:05:17;101462.95;;;13.96;36.31
27304;BME280;14791;52.392;13.092;2023-05-01T06:07:46;101460.13;;;14.05;36.42
27304;BME280;14791;52.392;13.092;2023-05-01T06:10:15;101466.66;;;14.15;36.26
27304;BME280;14791;52.392;13.092;2023-05-01T06:12:45;101458.94;;;14.23;36.13
27304;BME280;14791;52.392;13.092;2023-05-01T06:15:14;101463.72;;;14.33;36.01
27304;BME280;14791;52.392;13.092;2023-05-01T06:17:45;101459.08;;;14.42;35.93
27304;BME280;14791;52.392;13.092;2023-05-01T06:20:14;101456.16;;;14.52;35.78
27304;BME280;14791;52.392;13.092;2023-05-01T06:22:43;101456.92;;;14.61;35.66
27304;BME280;14791;52.392;13.092;2023-05-01T06:25:15;101453.13;;;14.71;35.64
27304;BME280;14791;52.392;13.092;2023-05-01T06:27:44;101453.72;;;14.82;35.43
27304;BME280;14791;52.392;13.092;2023-05-01T06:30:13;101442.34;;;14.91;35.33
27304;BME280;14791;52.392;13.092;2023-05-01T06:32:43;101453.81;;;15.00;35.24
27304;BME280;14791;52.392;13.092;2023-05-01T06:35:12;101450.50;;;15.09;35.14
27304;BME280;14791;52.392;13.092;2023-05-01T06:37:41;101448.02;;;15.19;35.06
27304;BME280;14791;52.392;13.092;2023-05-01T06:40:11;101445.94;;;15.30;35.07
27304;BME280;14791;52.392;13.092;2023-05-01T06:42:41;101453.73;;;15.40;34.88
27304;BME280;14791;52.392;13.092;2023-05-01T06:45:10;101454.44;;;15.49;34.84
27304;BME280;14791;52.392;13.092;2023-05-01T06:47:39;101455.49;;;15.60;34.75
27304;BME280;14791;52.392;13.092;2023-05-01T06:50:09;101445.91;;;15.68;34.83
27304;BME280;14791;52.392;13.092;2023-05-01T06:52:40;101451.03;;;15.79;34.75
27304;BME280;14791;52.392;13.092;2023-05-01T06:55:09;101446.19;;;15.89;34.59
27304;BME280;14791;52.392;13.092;2023-05-01T06:57:39;101449.47;;;16.00;34.68
27304;BME280;14791;52.392;13.092;2023-05-01T07:00:09;101444.16;;;16.11;34.80
27304;BME280;14791;52.392;13.092;2023-05-01T07:02:37;101447.39;;;16.22;34.80
27304;BME280;14791;52.392;13.092;2023-05-01T07:05:07;101445.25;;;16.33;34.65
27304;BME280;14791;52.392;13.092;2023-05-01T07:07:36;101443.45;;;16.45;34.41
27304;BME280;14791;52.392;13.092;2023-05-01T07:10:05;101438.50;;;16.57;34.54
27304;BME280;14791;52.392;13.092;2023-05-01T07:12:34;101430.69;;;16.71;34.36
27304;BME280;14791;52.392;13.092;2023-05-01T07:15:04;101431.12;;;16.83;34.20
27304;BME280;14791;52.392;13.092;2023-05-01T07:17:34;101426.61;;;16.95;34.01
27304;BME280;14791;52.392;13.092;2023-05-01T07:20:03;101422.48;;;17.08;34.23
27304;BME280;14791;52.392;13.092;2023-05-01T07:22:32;101416.98;;;17.20;33.99
27304;BME280;14791;52.392;13.092;2023-05-01T07:25:01;101426.80;;;17.33;33.79
27304;BME280;14791;52.392;13.092;2023-05-01T07:27:30;101421.66;;;17.47;34.00
27304;BME280;14791;52.392;13.092;2023-05-01T07:30:00;101419.81;;;17.58;33.62
27304;BME280;14791;52.392;13.092;2023-05-01T07:32:29;101412.56;;;17.70;33.65
27304;BME280;14791;52.392;13.092;2023-05-01T07:34:58;101417.11;;;17.81;33.85
27304;BME280;14791;52.392;13.092;2023-05-01T07:37:27;101407.14;;;17.93;33.62
27304;BME280;14791;52.392;13.092;2023-05-01T07:39:56;101409.72;;;18.05;33.37
27304;BME280;14791;52.392;13.092;2023-05-01T07:42:28;101409.66;;;18.17;33.54
27304;BME280;14791;52.392;13.092;2023-05-01T07:44:57;101405.70;;;18.26;33.09
27304;BME280;14791;52.392;13.092;2023-05-01T07:47:26;101405.78;;;18.36;33.33
27304;BME280;14791;52.392;13.092;2023-05-01T07:49:55;101404.39;;;18.47;33.31
27304;BME280;14791;52.392;13.092;2023-05-01T07:52:24;101392.30;;;18.57;33.23
27304;BME280;14791;52.392;13.092;2023-05-01T07:54:53;101380.34;;;18.65;32.85
27304;BME280;14791;52.392;13.092;2023-05-01T07:57:22;101388.53;;;18.75;32.69
27304;BME280;14791;52.392;13.092;2023-05-01T07:59:55;101382.98;;;18.82;32.58
27304;BME280;14791;52.392;13.092;2023-05-01T08:02:24;101380.83;;;18.91;32.96
27304;BME280;14791;52.392;13.092;2023-05-01T08:04:53;101372.77;;;19.01;32.59
27304;BME280;14791;52.392;13.092;2023-05-01T08:07:22;101375.87;;;19.12;32.37
27304;BME280;14791;52.392;13.092;2023-05-01T08:09:51;101377.15;;;19.23;32.29
27304;BME280;14791;52.392;13.092;2023-05-01T08:12:20;101372.28;;;19.32;32.16
27304;BME280;14791;52.392;13.092;2023-05-01T08:14:49;101367.24;;;19.43;32.39
27304;BME280;14791;52.392;13.092;2023-05-01T08:17:18;101370.71;;;19.55;32.06
27304;BME280;14791;52.392;13.092;2023-05-01T08:19:47;101364.81;;;19.65;31.72
27304;BME280;14791;52.392;13.092;2023-05-01T08:22:17;101367.11;;;19.75;31.76
27304;BME280;14791;52.392;13.092;2023-05-01T08:24:45;101365.27;;;19.86;31.48
27304;BME280;14791;52.392;13.092;2023-05-01T08:27:14;101362.70;;;19.94;31.45
27304;BME280;14791;52.392;13.092;2023-05-01T08:29:43;101368.63;;;20.03;31.29
27304;BME280;14791;52.392;13.092;2023-05-01T08:32:13;101364.73;;;20.11;31.38
27304;BME280;14791;52.392;13.092;2023-05-01T08:34:42;101359.45;;;20.19;31.53
27304;BME280;14791;52.392;13.092;2023-05-01T08:37:11;101356.02;;;20.27;31.93
27304;BME280;14791;52.392;13.092;2023-05-01T08:39:40;101359.74;;;20.36;31.09
27304;BME280;14791;52.392;13.092;2023-05-01T08:42:09;101356.44;;;20.42;30.82
27304;BME280;14791;52.392;13.092;2023-05-01T08:44:38;101344.67;;;20.47;30.79
27304;BME280;14791;52.392;13.092;2023-05-01T08:49:44;101346.91;;;20.57;30.78
27304;BME280;14791;52.392;13.092;2023-05-01T08:52:14;101346.30;;;20.64;30.84
27304;BME280;14791;52.392;13.092;2023-05-01T08:54:44;101344.17;;;20.67;30.36
27304;BME280;14791;52.392;13.092;2023-05-01T08:57:15;101341.87;;;20.72;30.16
27304;BME280;14791;52.392;13.092;2023-05-01T08:59:45;101333.94;;;20.75;30.03
27304;BME280;14791;52.392;13.092;2023-05-01T09:02:15;101331.63;;;20.80;30.38
27304;BME280;14791;52.392;13.092;2023-05-01T09:04:45;101323.89;;;20.85;30.94
27304;BME280;14791;52.392;13.092;2023-05-01T09:07:16;101327.09;;;20.94;30.53
27304;BME280;14791;52.392;13.092;2023-05-01T09:09:45;101318.20;;;21.02;30.19
27304;BME280;14791;52.392;13.092;2023-05-01T09:12:22;101313.73;;;21.11;30.00
27304;BME280;14791;52.392;13.092;2023-05-01T09:14:54;101305.69;;;21.19;29.60
27304;BME280;14791;52.392;13.092;2023-05-01T09:17:23;101303.09;;;21.27;29.71
27304;BME280;14791;52.392;13.092;2023-05-01T09:19:53;101301.48;;;21.34;29.58
27304;BME280;14791;52.392;13.092;2023-05-01T09:22:21;101303.33;;;21.43;29.48
27304;BME280;14791;52.392;13.092;2023-05-01T09:24:51;101287.10;;;21.52;29.67
27304;BME280;14791;52.392;13.092;2023-05-01T09:27:20;101293.50;;;21.60;29.82
27304;BME280;14791;52.392;13.092;2023-05-01T09:29:49;101290.01;;;21.68;30.24
27304;BME280;14791;52.392;13.092;2023-05-01T09:32:21;101292.45;;;21.75;29.36
27304;BME280;14791;52.392;13.092;2023-05-01T09:34:52;101286.05;;;21.80;29.29
27304;BME280;14791;52.392;13.092;2023-05-01T09:37:29;101272.84;;;21.85;28.88
27304;BME280;14791;52.392;13.092;2023-05-01T09:40:10;101272.89;;;21.90;28.76
27304;BME280;14791;52.392;13.092;2023-05-01T09:42:46;101272.94;;;21.94;29.38
27304;BME280;14791;52.392;13.092;2023-05-01T09:45:14;101265.81;;;21.97;28.91
27304;BME280;14791;52.392;13.092;2023-05-01T09:47:44;101262.81;;;22.04;29.06
27304;BME280;14791;52.392;13.092;2023-05-01T09:50:28;101256.91;;;22.08;28.91
27304;BME280;14791;52.392;13.092;2023-05-01T09:52:59;101264.42;;;22.15;28.74
27304;BME280;14791;52.392;13.092;2023-05-01T09:55:28;101258.52;;;22.19;28.57
27304;BME280;14791;52.392;13.092;2023-05-01T09:57:56;101245.34;;;22.24;28.29
27304;BME280;14791;52.392;13.092;2023-05-01T10:00:29;101248.26;;;22.27;28.23
27304;BME280;14791;52.392;13.092;2023-05-01T10:02:58;101230.39;;;22.28;28.17
27304;BME280;14791;52.392;13.092;2023-05-01T10:05:41;101236.89;;;22.32;28.07
27304;BME280;14791;52.392;13.092;2023-05-01T10:08:01;101235.73;;;22.38;28.00
27304;BME280;14791;52.392;13.092;2023-05-01T10:10:31;101233.56;;;22.42;27.92
27304;BME280;14791;52.392;13.092;2023-05-01T10:15:44;101234.15;;;22.54;28.34
27304;BME280;14791;52.392;13.092;2023-05-01T10:18:17;101225.50;;;22.58;28.63
27304;BME280;14791;52.392;13.092;2023-05-01T10:23:16;101217.73;;;22.71;28.49
27304;BME280;14791;52.392;13.092;2023-05-01T10:25:46;101205.02;;;22.80;27.99
27304;BME280;14791;52.392;13.092;2023-05-01T10:28:20;101212.03;;;22.91;28.13
27304;BME280;14791;52.392;13.092;2023-05-01T10:30:52;101210.23;;;23.00;28.47
27304;BME280;14791;52.392;13.092;2023-05-01T10:33:22;101204.49;;;23.11;28.06
27304;BME280;14791;52.392;13.092;2023-05-01T10:35:53;101209.62;;;23.22;27.66
27304;BME280;14791;52.392;13.092;2023-05-01T10:38:26;101198.93;;;23.33;27.56
27304;BME280;14791;52.392;13.092;2023-05-01T10:40:55;101194.53;;;23.44;27.21
27304;BME280;14791;52.392;13.092;2023-05-01T10:43:26;101192.13;;;23.53;26.98
27304;BME280;14791;52.392;13.092;2023-05-01T10:46:28;101192.84;;;23.64;28.22
27304;BME280;14791;52.392;13.092;2023-05-01T10:48:52;101178.05;;;23.74;26.92
27304;BME280;14791;52.392;13.092;2023-05-01T10:51:26;101185.39;;;23.78;26.45
27304;BME280;14791;52.392;13.092;2023-05-01T10:56:49;101180.59;;;23.84;26.31
27304;BME280;14791;52.392;13.092;2023-05-01T10:59:18;101177.35;;;23.85;26.31
27304;BME280;14791;52.392;13.092;2023-05-01T11:01:48;101170.70;;;23.91;26.11
27304;BME280;14791;52.392;13.092;2023-05-01T11:07:14;101168.33;;;24.09;25.74
27304;BME280;14791;52.392;13.092;2023-05-01T11:12:46;101163.53;;;24.23;25.78
27304;BME280;14791;52.392;13.092;2023-05-01T11:15:08;101157.68;;;24.34;25.62
27304;BME280;14791;52.392;13.092;2023-05-01T11:22:56;101149.06;;;24.66;25.46
27304;BME280;14791;52.392;13.092;2023-05-01T11:25:27;101143.22;;;24.77;25.22
27304;BME280;14791;52.392;13.092;2023-05-01T11:28:01;101135.33;;;24.87;24.87
27304;BME280;14791;52.392;13.092;2023-05-01T11:30:37;101123.17;;;24.93;24.88
27304;BME280;14791;52.392;13.092;2023-05-01T11:33:06;101122.59;;;25.02;24.82
27304;BME280;14791;52.392;13.092;2023-05-01T11:35:36;101112.64;;;25.09;24.80
27304;BME280;14791;52.392;13.092;2023-05-01T11:38:05;101116.05;;;25.19;24.62
27304;BME280;14791;52.392;13.092;2023-05-01T11:40:35;101110.66;;;25.30;24.67
27304;BME280;14791;52.392;13.092;2023-05-01T11:43:07;101100.14;;;25.42;24.60
27304;BME280;14791;52.392;13.092;2023-05-01T11:45:36;101092.67;;;25.55;25.13
27304;BME280;14791;52.392;13.092;2023-05-01T11:48:18;101097.02;;;25.68;25.57
27304;BME280;14791;52.392;13.092;2023-05-01T11:50:38;101094.69;;;25.80;25.14
27304;BME280;14791;52.392;13.092;2023-05-01T11:53:12;101093.22;;;25.92;24.62
27304;BME280;14791;52.392;13.092;2023-05-01T11:55:43;101086.91;;;26.06;24.44
27304;BME280;14791;52.392;13.092;2023-05-01T11:58:13;101084.03;;;26.19;24.77
27304;BME280;14791;52.392;13.092;2023-05-01T12:00:42;101086.27;;;26.34;24.34
27304;BME280;14791;52.392;13.092;2023-05-01T12:03:12;101082.97;;;26.54;24.52
27304;BME280;14791;52.392;13.092;2023-05-01T12:05:44;101077.55;;;26.75;25.03
27304;BME280;14791;52.392;13.092;2023-05-01T12:08:16;101069.88;;;27.07;24.89
27304;BME280;14791;52.392;13.092;2023-05-01T12:10:55;101064.59;;;27.48;24.42
27304;BME280;14791;52.392;13.092;2023-05-01T12:13:25;101061.19;;;27.96;23.99
27304;BME280;14791;52.392;13.092;2023-05-01T12:15:55;101069.00;;;28.51;23.61
27304;BME280;14791;52.392;13.092;2023-05-01T12:18:25;101064.63;;;29.01;22.89
27304;BME280;14791;52.392;13.092;2023-05-01T12:20:54;101057.30;;;29.41;23.14
27304;BME280;14791;52.392;13.092;2023-05-01T12:23:36;101059.44;;;29.79;22.55
27304;BME280;14791;52.392;13.092;2023-05-01T12:26:18;101063.60;;;30.15;22.50
27304;BME280;14791;52.392;13.092;2023-05-01T12:28:56;101061.72;;;30.45;21.99
27304;BME280;14791;52.392;13.092;2023-05-01T12:31:27;101057.60;;;30.67;21.54
27304;BME280;14791;52.392;13.092;2023-05-01T12:34:06;101060.60;;;30.82;21.31
27304;BME280;14791;52.392;13.092;2023-05-01T12:36:35;101052.92;;;30.90;21.02
27304;BME280;14791;52.392;13.092;2023-05-01T12:39:06;101056.58;;;31.00;21.24
27304;BME280;14791;52.392;13.092;2023-05-01T12:44:17;101046.97;;;31.41;21.00
27304;BME280;14791;52.392;13.092;2023-05-01T12:47:02;101031.78;;;31.66;20.95
27304;BME280;14791;52.392;13.092;2023-05-01T12:49:31;101035.55;;;31.97;21.41
27304;BME280;14791;52.392;13.092;2023-05-01T12:52:00;101032.84;;;32.27;20.60
27304;BME280;14791;52.392;13.092;2023-05-01T12:54:31;101036.52;;;32.58;21.54
27304;BME280;14791;52.392;13.092;2023-05-01T12:57:12;101035.38;;;32.87;20.01
27304;BME280;14791;52.392;13.092;2023-05-01T12:59:45;101027.17;;;33.10;19.70
27304;BME280;14791;52.392;13.092;2023-05-01T13:02:17;101037.36;;;33.31;19.73
27304;BME280;14791;52.392;13.092;2023-05-01T13:04:46;101028.25;;;33.54;19.84
27304;BME280;14791;52.392;13.092;2023-05-01T13:07:18;101017.98;;;33.75;19.52
27304;BME280;14791;52.392;13.092;2023-05-01T13:09:52;101024.66;;;34.00;18.96
27304;BME280;14791;52.392;13.092;2023-05-01T13:12:22;101028.77;;;34.24;18.68
27304;BME280;14791;52.392;13.092;2023-05-01T13:14:52;101017.70;;;34.38;19.19
27304;BME280;14791;52.392;13.092;2023-05-01T13:20:00;101016.39;;;34.84;18.69
27304;BME280;14791;52.392;13.092;2023-05-01T13:22:35;101015.93;;;35.18;18.38
27304;BME280;14791;52.392;13.092;2023-05-01T13:25:21;101014.60;;;35.57;18.35
27304;BME280;14791;52.392;13.092;2023-05-01T13:27:49;101002.92;;;35.94;18.16
27304;BME280;14791;52.392;13.092;2023-05-01T13:30:20;101009.00;;;36.32;17.66
27304;BME280;14791;52.392;13.092;2023-05-01T13:32:50;100999.90;;;36.59;17.17
27304;BME280;14791;52.392;13.092;2023-05-01T13:35:26;100990.66;;;36.80;16.98
27304;BME280;14791;52.392;13.092;2023-05-01T13:37:55;100988.06;;;37.03;17.66
27304;BME280;14791;52.392;13.092;2023-05-01T13:40:25;100992.23;;;37.31;18.07
27304;BME280;14791;52.392;13.092;2023-05-01T13:42:55;100993.84;;;37.64;17.21
27304;BME280;14791;52.392;13.092;2023-05-01T13:45:25;100991.53;;;37.96;16.30
27304;BME280;14791;52.392;13.092;2023-05-01T13:47:54;100988.86;;;38.21;16.01